sensor_id;sensor_type;location;lat;lon;timestamp;P1;durP1;ratioP1;P2;durP2;ratioP2
26106;SDS011;13866;50.748;12.630;2023-08-17T00:00:12;20.93;;;19.03;;
26106;SDS011;13866;50.748;12.630;2023-08-17T00:02:42;21.13;;;19.30;;
26106;SDS011;13866;50.748;12.630;2023-08-17T00:05:08;21.33;;;19.63;;
26106;SDS011;13866;50.748;12.630;2023-08-17T00:07:35;20.50;;;18.83;;
26106;SDS011;13866;50.748;12.630;2023-08-17T00:10:05;22.43;;;20.20;;
26106;SDS011;13866;50.748;12.630;2023-08-17T00:12:31;21.97;;;20.00;;
26106;SDS011;13866;50.748;12.630;2023-08-17T00:14:57;22.50;;;20.27;;
26106;SDS011;13866;50.748;12.630;2023-08-17T00:17:24;22.67;;;20.57;;
26106;SDS011;13866;50.748;12.630;2023-08-17T00:19:50;23.07;;;21.07;;
26106;SDS011;13866;50.748;12.630;2023-08-17T00:22:17;22.23;;;20.10;;
26106;SDS011;13866;50.748;12.630;2023-08-17T00:24:43;22.43;;;20.17;;
26106;SDS011;13866;50.748;12.630;2023-08-17T00:27:10;19.53;;;18.10;;
26106;SDS011;13866;50.748;12.630;2023-08-17T00:29:37;22.53;;;19.43;;
26106;SDS011;13866;50.748;12.630;2023-08-17T00:32:03;19.73;;;18.33;;
26106;SDS011;13866;50.748;12.630;2023-08-17T00:34:30;18.60;;;17.20;;
26106;SDS011;13866;50.748;12.630;2023-08-17T00:36:56;19.43;;;17.40;;
26106;SDS011;13866;50.748;12.630;2023-08-17T00:39:22;19.93;;;17.70;;
26106;SDS011;13866;50.748;12.630;2023-08-17T00:41:51;19.37;;;17.97;;
26106;SDS011;13866;50.748;12.630;2023-08-17T00:44:20;23.53;;;19.07;;
26106;SDS011;13866;50.748;12.630;2023-08-17T00:46:47;22.70;;;20.70;;
26106;SDS011;13866;50.748;12.630;2023-08-17T00:49:13;21.73;;;19.53;;
26106;SDS011;13866;50.748;12.630;2023-08-17T00:51:40;22.50;;;20.47;;
26106;SDS011;13866;50.748;12.630;2023-08-17T00:54:09;23.43;;;19.40;;
26106;SDS011;13866;50.748;12.630;2023-08-17T00:56:49;21.97;;;19.80;;
26106;SDS011;13866;50.748;12.630;2023-08-17T00:59:17;23.13;;;20.50;;
26106;SDS011;13866;50.748;12.630;2023-08-17T01:01:44;22.00;;;20.20;;
26106;SDS011;13866;50.748;12.630;2023-08-17T01:04:11;21.83;;;19.67;;
26106;SDS011;13866;50.748;12.630;2023-08-17T01:06:38;19.43;;;18.07;;
26106;SDS011;13866;50.748;12.630;2023-08-17T01:09:04;22.23;;;20.27;;
26106;SDS011;13866;50.748;12.630;2023-08-17T01:11:36;18.90;;;17.27;;
26106;SDS011;13866;50.748;12.630;2023-08-17T01:14:14;21.00;;;19.00;;
26106;SDS011;13866;50.748;12.630;2023-08-17T01:19:32;24.93;;;17.33;;
26106;SDS011;13866;50.748;12.630;2023-08-17T01:22:03;26.00;;;18.03;;
26106;SDS011;13866;50.748;12.630;2023-08-17T01:24:31;19.30;;;17.77;;
26106;SDS011;13866;50.748;12.630;2023-08-17T01:26:58;18.53;;;16.87;;
26106;SDS011;13866;50.748;12.630;2023-08-17T01:29:25;18.97;;;17.27;;
26106;SDS011;13866;50.748;12.630;2023-08-17T01:32:07;17.60;;;16.40;;
26106;SDS011;13866;50.748;12.630;2023-08-17T01:34:49;18.07;;;16.63;;
26106;SDS011;13866;50.748;12.630;2023-08-17T01:37:21;20.43;;;18.50;;
26106;SDS011;13866;50.748;12.630;2023-08-17T01:39:55;20.13;;;18.13;;
26106;SDS011;13866;50.748;12.630;2023-08-17T01:42:23;18.37;;;16.80;;
26106;SDS011;13866;50.748;12.630;2023-08-17T01:44:53;20.00;;;18.20;;
26106;SDS011;13866;50.748;12.630;2023-08-17T01:47:20;17.03;;;15.33;;
26106;SDS011;13866;50.748;12.630;2023-08-17T01:49:46;17.33;;;16.00;;
26106;SDS011;13866;50.748;12.630;2023-08-17T01:52:12;19.27;;;17.57;;
26106;SDS011;13866;50.748;12.630;2023-08-17T01:54:37;19.40;;;17.80;;
26106;SDS011;13866;50.748;12.630;2023-08-17T01:57:03;18.63;;;17.00;;
26106;SDS011;13866;50.748;12.630;2023-08-17T01:59:29;17.40;;;16.03;;
26106;SDS011;13866;50.748;12.630;2023-08-17T02:01:54;19.90;;;18.10;;
26106;SDS011;13866;50.748;12.630;2023-08-17T02:04:19;21.20;;;19.50;;
26106;SDS011;13866;50.748;12.630;2023-08-17T02:06:45;21.30;;;19.50;;
26106;SDS011;13866;50.748;12.630;2023-08-17T02:09:10;20.37;;;18.87;;
26106;SDS011;13866;50.748;12.630;2023-08-17T02:11:36;18.80;;;17.40;;
26106;SDS011;13866;50.748;12.630;2023-08-17T02:14:01;19.17;;;17.37;;
26106;SDS011;13866;50.748;12.630;2023-08-17T02:16:27;20.33;;;18.40;;
26106;SDS011;13866;50.748;12.630;2023-08-17T02:18:52;21.60;;;19.70;;
26106;SDS011;13866;50.748;12.630;2023-08-17T02:21:18;19.63;;;17.80;;
26106;SDS011;13866;50.748;12.630;2023-08-17T02:23:44;19.27;;;17.90;;
26106;SDS011;13866;50.748;12.630;2023-08-17T02:26:09;20.50;;;18.50;;
26106;SDS011;13866;50.748;12.630;2023-08-17T02:28:35;31.03;;;18.27;;
26106;SDS011;13866;50.748;12.630;2023-08-17T02:31:01;19.33;;;17.43;;
26106;SDS011;13866;50.748;12.630;2023-08-17T02:33:26;20.53;;;18.50;;
26106;SDS011;13866;50.748;12.630;2023-08-17T02:35:52;19.07;;;17.40;;
26106;SDS011;13866;50.748;12.630;2023-08-17T02:38:17;19.83;;;18.00;;
26106;SDS011;13866;50.748;12.630;2023-08-17T02:40:43;18.70;;;17.10;;
26106;SDS011;13866;50.748;12.630;2023-08-17T02:43:09;19.27;;;17.53;;
26106;SDS011;13866;50.748;12.630;2023-08-17T02:45:34;34.13;;;16.60;;
26106;SDS011;13866;50.748;12.630;2023-08-17T02:48:00;22.07;;;20.00;;
26106;SDS011;13866;50.748;12.630;2023-08-17T02:50:26;26.00;;;23.57;;
26106;SDS011;13866;50.748;12.630;2023-08-17T02:52:52;37.30;;;27.40;;
26106;SDS011;13866;50.748;12.630;2023-08-17T02:55:17;30.70;;;27.77;;
26106;SDS011;13866;50.748;12.630;2023-08-17T02:57:43;33.23;;;30.10;;
26106;SDS011;13866;50.748;12.630;2023-08-17T03:00:08;33.63;;;29.87;;
26106;SDS011;13866;50.748;12.630;2023-08-17T03:02:34;38.77;;;33.73;;
26106;SDS011;13866;50.748;12.630;2023-08-17T03:05:00;36.33;;;32.47;;
26106;SDS011;13866;50.748;12.630;2023-08-17T03:07:25;35.87;;;32.33;;
26106;SDS011;13866;50.748;12.630;2023-08-17T03:09:51;38.53;;;34.50;;
26106;SDS011;13866;50.748;12.630;2023-08-17T03:12:16;35.63;;;32.10;;
26106;SDS011;13866;50.748;12.630;2023-08-17T03:14:42;45.63;;;27.73;;
26106;SDS011;13866;50.748;12.630;2023-08-17T03:17:07;31.03;;;27.97;;
26106;SDS011;13866;50.748;12.630;2023-08-17T03:19:33;21.77;;;19.53;;
26106;SDS011;13866;50.748;12.630;2023-08-17T03:21:58;17.63;;;14.87;;
26106;SDS011;13866;50.748;12.630;2023-08-17T03:24:24;16.93;;;12.17;;
26106;SDS011;13866;50.748;12.630;2023-08-17T03:26:49;9.30;;;8.90;;
26106;SDS011;13866;50.748;12.630;2023-08-17T03:29:15;8.83;;;8.20;;
26106;SDS011;13866;50.748;12.630;2023-08-17T03:31:40;6.00;;;5.80;;
26106;SDS011;13866;50.748;12.630;2023-08-17T03:34:06;4.87;;;4.67;;
26106;SDS011;13866;50.748;12.630;2023-08-17T03:36:32;3.73;;;3.67;;
26106;SDS011;13866;50.748;12.630;2023-08-17T03:38:57;4.00;;;3.90;;
26106;SDS011;13866;50.748;12.630;2023-08-17T03:41:23;3.07;;;2.97;;
26106;SDS011;13866;50.748;12.630;2023-08-17T03:43:49;2.60;;;2.60;;
26106;SDS011;13866;50.748;12.630;2023-08-17T03:46:14;2.70;;;2.70;;
26106;SDS011;13866;50.748;12.630;2023-08-17T03:48:40;2.23;;;2.23;;
26106;SDS011;13866;50.748;12.630;2023-08-17T03:51:05;2.30;;;2.20;;
26106;SDS011;13866;50.748;12.630;2023-08-17T03:53:31;2.23;;;2.20;;
26106;SDS011;13866;50.748;12.630;2023-08-17T03:55:56;1.70;;;1.70;;
26106;SDS011;13866;50.748;12.630;2023-08-17T03:58:22;3.87;;;1.83;;
26106;SDS011;13866;50.748;12.630;2023-08-17T04:00:50;2.23;;;2.17;;
26106;SDS011;13866;50.748;12.630;2023-08-17T04:03:16;1.97;;;1.97;;
26106;SDS011;13866;50.748;12.630;2023-08-17T04:05:42;2.43;;;2.33;;
26106;SDS011;13866;50.748;12.630;2023-08-17T04:08:08;1.90;;;1.87;;
26106;SDS011;13866;50.748;12.630;2023-08-17T04:10:33;1.97;;;1.97;;
26106;SDS011;13866;50.748;12.630;2023-08-17T04:12:59;1.93;;;1.83;;
26106;SDS011;13866;50.748;12.630;2023-08-17T04:15:24;1.70;;;1.70;;
26106;SDS011;13866;50.748;12.630;2023-08-17T04:17:50;1.70;;;1.70;;
26106;SDS011;13866;50.748;12.630;2023-08-17T04:20:15;1.67;;;1.57;;
26106;SDS011;13866;50.748;12.630;2023-08-17T04:22:43;1.67;;;1.57;;
26106;SDS011;13866;50.748;12.630;2023-08-17T04:25:08;1.67;;;1.67;;
26106;SDS011;13866;50.748;12.630;2023-08-17T04:27:34;1.73;;;1.67;;
26106;SDS011;13866;50.748;12.630;2023-08-17T04:30:00;3.50;;;1.70;;
26106;SDS011;13866;50.748;12.630;2023-08-17T04:32:26;3.27;;;1.90;;
26106;SDS011;13866;50.748;12.630;2023-08-17T04:34:51;1.80;;;1.70;;
26106;SDS011;13866;50.748;12.630;2023-08-17T04:37:16;2.20;;;2.00;;
26106;SDS011;13866;50.748;12.630;2023-08-17T04:39:42;2.10;;;2.00;;
26106;SDS011;13866;50.748;12.630;2023-08-17T04:42:08;2.10;;;2.10;;
26106;SDS011;13866;50.748;12.630;2023-08-17T04:44:34;3.50;;;3.50;;
26106;SDS011;13866;50.748;12.630;2023-08-17T04:46:59;3.03;;;3.03;;
26106;SDS011;13866;50.748;12.630;2023-08-17T04:49:25;3.20;;;3.03;;
26106;SDS011;13866;50.748;12.630;2023-08-17T04:51:51;4.00;;;4.00;;
26106;SDS011;13866;50.748;12.630;2023-08-17T04:54:17;13.67;;;5.43;;
26106;SDS011;13866;50.748;12.630;2023-08-17T04:56:42;8.93;;;8.53;;
26106;SDS011;13866;50.748;12.630;2023-08-17T04:59:08;11.43;;;10.73;;
26106;SDS011;13866;50.748;12.630;2023-08-17T05:01:34;16.50;;;10.63;;
26106;SDS011;13866;50.748;12.630;2023-08-17T05:04:00;12.70;;;11.90;;
26106;SDS011;13866;50.748;12.630;2023-08-17T05:06:27;16.90;;;15.40;;
26106;SDS011;13866;50.748;12.630;2023-08-17T05:08:53;15.00;;;13.77;;
26106;SDS011;13866;50.748;12.630;2023-08-17T05:11:19;15.87;;;14.13;;
26106;SDS011;13866;50.748;12.630;2023-08-17T05:13:44;16.83;;;14.27;;
26106;SDS011;13866;50.748;12.630;2023-08-17T05:16:10;11.83;;;10.90;;
26106;SDS011;13866;50.748;12.630;2023-08-17T05:18:36;10.40;;;9.80;;
26106;SDS011;13866;50.748;12.630;2023-08-17T05:21:01;8.17;;;7.40;;
26106;SDS011;13866;50.748;12.630;2023-08-17T05:23:27;7.83;;;7.43;;
26106;SDS011;13866;50.748;12.630;2023-08-17T05:25:52;7.57;;;7.37;;
26106;SDS011;13866;50.748;12.630;2023-08-17T05:28:18;8.00;;;7.60;;
26106;SDS011;13866;50.748;12.630;2023-08-17T05:30:43;7.17;;;6.97;;
26106;SDS011;13866;50.748;12.630;2023-08-17T05:33:09;7.80;;;7.60;;
26106;SDS011;13866;50.748;12.630;2023-08-17T05:35:34;7.80;;;6.50;;
26106;SDS011;13866;50.748;12.630;2023-08-17T05:38:00;7.10;;;6.40;;
26106;SDS011;13866;50.748;12.630;2023-08-17T05:40:31;6.67;;;6.53;;
26106;SDS011;13866;50.748;12.630;2023-08-17T05:42:57;8.07;;;7.60;;
26106;SDS011;13866;50.748;12.630;2023-08-17T05:45:23;7.70;;;7.40;;
26106;SDS011;13866;50.748;12.630;2023-08-17T05:47:48;7.83;;;7.53;;
26106;SDS011;13866;50.748;12.630;2023-08-17T05:50:14;6.40;;;6.30;;
26106;SDS011;13866;50.748;12.630;2023-08-17T05:52:40;7.57;;;7.27;;
26106;SDS011;13866;50.748;12.630;2023-08-17T05:55:06;7.70;;;7.57;;
26106;SDS011;13866;50.748;12.630;2023-08-17T05:57:32;6.17;;;5.97;;
26106;SDS011;13866;50.748;12.630;2023-08-17T05:59:57;8.47;;;8.17;;
26106;SDS011;13866;50.748;12.630;2023-08-17T06:02:24;14.03;;;9.43;;
26106;SDS011;13866;50.748;12.630;2023-08-17T06:04:49;12.17;;;11.47;;
26106;SDS011;13866;50.748;12.630;2023-08-17T06:07:15;11.43;;;10.73;;
26106;SDS011;13866;50.748;12.630;2023-08-17T06:09:40;10.83;;;10.30;;
26106;SDS011;13866;50.748;12.630;2023-08-17T06:12:06;12.60;;;11.63;;
26106;SDS011;13866;50.748;12.630;2023-08-17T06:14:34;11.00;;;10.50;;
26106;SDS011;13866;50.748;12.630;2023-08-17T06:17:00;14.40;;;12.97;;
26106;SDS011;13866;50.748;12.630;2023-08-17T06:19:25;15.00;;;13.70;;
26106;SDS011;13866;50.748;12.630;2023-08-17T06:21:51;15.27;;;14.37;;
26106;SDS011;13866;50.748;12.630;2023-08-17T06:24:17;17.47;;;16.20;;
26106;SDS011;13866;50.748;12.630;2023-08-17T06:26:43;23.63;;;15.60;;
26106;SDS011;13866;50.748;12.630;2023-08-17T06:29:09;17.20;;;15.47;;
26106;SDS011;13866;50.748;12.630;2023-08-17T06:31:34;14.03;;;13.13;;
26106;SDS011;13866;50.748;12.630;2023-08-17T06:34:00;14.17;;;12.67;;
26106;SDS011;13866;50.748;12.630;2023-08-17T06:36:25;13.67;;;12.87;;
26106;SDS011;13866;50.748;12.630;2023-08-17T06:38:51;17.83;;;12.13;;
26106;SDS011;13866;50.748;12.630;2023-08-17T06:41:16;13.67;;;12.80;;
26106;SDS011;13866;50.748;12.630;2023-08-17T06:43:42;12.67;;;11.90;;
26106;SDS011;13866;50.748;12.630;2023-08-17T06:46:07;14.77;;;13.57;;
26106;SDS011;13866;50.748;12.630;2023-08-17T06:48:33;17.33;;;13.67;;
26106;SDS011;13866;50.748;12.630;2023-08-17T06:50:58;13.90;;;12.67;;
26106;SDS011;13866;50.748;12.630;2023-08-17T06:53:24;24.77;;;14.00;;
26106;SDS011;13866;50.748;12.630;2023-08-17T06:55:49;13.53;;;12.30;;
26106;SDS011;13866;50.748;12.630;2023-08-17T06:58:15;13.13;;;12.03;;
26106;SDS011;13866;50.748;12.630;2023-08-17T07:00:41;12.00;;;11.13;;
26106;SDS011;13866;50.748;12.630;2023-08-17T07:03:07;13.63;;;12.40;;
26106;SDS011;13866;50.748;12.630;2023-08-17T07:05:33;13.50;;;12.30;;
26106;SDS011;13866;50.748;12.630;2023-08-17T07:07:59;15.23;;;13.73;;
26106;SDS011;13866;50.748;12.630;2023-08-17T07:10:25;12.73;;;11.63;;
26106;SDS011;13866;50.748;12.630;2023-08-17T07:12:51;15.37;;;13.93;;
26106;SDS011;13866;50.748;12.630;2023-08-17T07:15:17;14.00;;;12.77;;
26106;SDS011;13866;50.748;12.630;2023-08-17T07:17:43;12.57;;;11.80;;
26106;SDS011;13866;50.748;12.630;2023-08-17T07:20:09;12.13;;;11.33;;
26106;SDS011;13866;50.748;12.630;2023-08-17T07:22:36;12.93;;;11.93;;
26106;SDS011;13866;50.748;12.630;2023-08-17T07:25:02;11.53;;;10.70;;
26106;SDS011;13866;50.748;12.630;2023-08-17T07:27:28;12.97;;;12.03;;
26106;SDS011;13866;50.748;12.630;2023-08-17T07:29:54;14.37;;;13.10;;
26106;SDS011;13866;50.748;12.630;2023-08-17T07:32:19;11.60;;;10.70;;
26106;SDS011;13866;50.748;12.630;2023-08-17T07:34:46;11.33;;;10.67;;
26106;SDS011;13866;50.748;12.630;2023-08-17T07:37:11;12.20;;;11.40;;
26106;SDS011;13866;50.748;12.630;2023-08-17T07:39:37;11.17;;;10.47;;
26106;SDS011;13866;50.748;12.630;2023-08-17T07:42:03;10.63;;;9.93;;
26106;SDS011;13866;50.748;12.630;2023-08-17T07:44:29;10.67;;;9.77;;
26106;SDS011;13866;50.748;12.630;2023-08-17T07:46:56;9.00;;;8.50;;
26106;SDS011;13866;50.748;12.630;2023-08-17T07:49:22;9.70;;;9.20;;
26106;SDS011;13866;50.748;12.630;2023-08-17T07:51:49;8.57;;;7.93;;
26106;SDS011;13866;50.748;12.630;2023-08-17T07:54:14;9.00;;;8.53;;
26106;SDS011;13866;50.748;12.630;2023-08-17T07:56:40;8.00;;;7.70;;
26106;SDS011;13866;50.748;12.630;2023-08-17T07:59:05;10.07;;;9.03;;
26106;SDS011;13866;50.748;12.630;2023-08-17T08:01:31;8.10;;;7.80;;
26106;SDS011;13866;50.748;12.630;2023-08-17T08:03:57;8.77;;;8.37;;
26106;SDS011;13866;50.748;12.630;2023-08-17T08:06:23;15.30;;;9.50;;
26106;SDS011;13866;50.748;12.630;2023-08-17T08:08:48;9.00;;;8.40;;
26106;SDS011;13866;50.748;12.630;2023-08-17T08:11:14;10.13;;;9.70;;
26106;SDS011;13866;50.748;12.630;2023-08-17T08:13:39;10.87;;;10.27;;
26106;SDS011;13866;50.748;12.630;2023-08-17T08:16:05;11.10;;;10.30;;
26106;SDS011;13866;50.748;12.630;2023-08-17T08:18:31;11.67;;;10.90;;
26106;SDS011;13866;50.748;12.630;2023-08-17T08:20:56;10.87;;;10.27;;
26106;SDS011;13866;50.748;12.630;2023-08-17T08:23:21;11.60;;;11.00;;
26106;SDS011;13866;50.748;12.630;2023-08-17T08:25:47;11.90;;;10.20;;
26106;SDS011;13866;50.748;12.630;2023-08-17T08:28:13;11.00;;;10.40;;
26106;SDS011;13866;50.748;12.630;2023-08-17T08:30:38;15.23;;;9.90;;
26106;SDS011;13866;50.748;12.630;2023-08-17T08:33:04;9.60;;;9.20;;
26106;SDS011;13866;50.748;12.630;2023-08-17T08:35:29;10.17;;;9.47;;
26106;SDS011;13866;50.748;12.630;2023-08-17T08:37:55;9.80;;;9.27;;
26106;SDS011;13866;50.748;12.630;2023-08-17T08:40:26;11.23;;;9.00;;
26106;SDS011;13866;50.748;12.630;2023-08-17T08:42:53;9.50;;;9.00;;
26106;SDS011;13866;50.748;12.630;2023-08-17T08:45:19;16.13;;;12.23;;
26106;SDS011;13866;50.748;12.630;2023-08-17T08:47:47;9.87;;;9.40;;
26106;SDS011;13866;50.748;12.630;2023-08-17T08:50:15;10.17;;;9.17;;
26106;SDS011;13866;50.748;12.630;2023-08-17T08:52:50;10.60;;;9.63;;
26106;SDS011;13866;50.748;12.630;2023-08-17T08:55:23;10.67;;;10.07;;
26106;SDS011;13866;50.748;12.630;2023-08-17T08:57:51;9.37;;;8.77;;
26106;SDS011;13866;50.748;12.630;2023-08-17T09:00:18;9.10;;;8.77;;
26106;SDS011;13866;50.748;12.630;2023-08-17T09:02:44;9.50;;;8.93;;
26106;SDS011;13866;50.748;12.630;2023-08-17T09:05:10;9.53;;;8.80;;
26106;SDS011;13866;50.748;12.630;2023-08-17T09:07:37;8.80;;;8.40;;
26106;SDS011;13866;50.748;12.630;2023-08-17T09:10:04;7.80;;;7.60;;
26106;SDS011;13866;50.748;12.630;2023-08-17T09:12:30;9.73;;;9.23;;
26106;SDS011;13866;50.748;12.630;2023-08-17T09:14:56;9.03;;;8.40;;
26106;SDS011;13866;50.748;12.630;2023-08-17T09:17:25;9.63;;;9.20;;
26106;SDS011;13866;50.748;12.630;2023-08-17T09:19:51;8.80;;;8.40;;
26106;SDS011;13866;50.748;12.630;2023-08-17T09:22:50;9.57;;;9.07;;
26106;SDS011;13866;50.748;12.630;2023-08-17T09:25:09;8.60;;;7.90;;
26106;SDS011;13866;50.748;12.630;2023-08-17T09:27:39;10.67;;;7.70;;
26106;SDS011;13866;50.748;12.630;2023-08-17T09:30:08;8.30;;;7.90;;
26106;SDS011;13866;50.748;12.630;2023-08-17T09:32:35;9.10;;;8.67;;
26106;SDS011;13866;50.748;12.630;2023-08-17T09:35:03;9.70;;;9.13;;
26106;SDS011;13866;50.748;12.630;2023-08-17T09:37:33;9.60;;;9.03;;
26106;SDS011;13866;50.748;12.630;2023-08-17T09:39:59;8.87;;;8.37;;
26106;SDS011;13866;50.748;12.630;2023-08-17T09:42:25;8.73;;;8.33;;
26106;SDS011;13866;50.748;12.630;2023-08-17T09:44:53;8.57;;;7.97;;
26106;SDS011;13866;50.748;12.630;2023-08-17T09:47:20;9.20;;;8.77;;
26106;SDS011;13866;50.748;12.630;2023-08-17T09:49:53;10.47;;;9.90;;
26106;SDS011;13866;50.748;12.630;2023-08-17T09:52:20;8.57;;;8.27;;
26106;SDS011;13866;50.748;12.630;2023-08-17T09:54:46;9.97;;;9.40;;
26106;SDS011;13866;50.748;12.630;2023-08-17T09:57:12;8.23;;;7.90;;
26106;SDS011;13866;50.748;12.630;2023-08-17T09:59:39;9.50;;;9.07;;
26106;SDS011;13866;50.748;12.630;2023-08-17T10:02:07;9.93;;;9.33;;
26106;SDS011;13866;50.748;12.630;2023-08-17T10:04:41;10.13;;;9.43;;
26106;SDS011;13866;50.748;12.630;2023-08-17T10:07:07;9.57;;;9.17;;
26106;SDS011;13866;50.748;12.630;2023-08-17T10:09:36;10.47;;;9.93;;
26106;SDS011;13866;50.748;12.630;2023-08-17T10:12:10;10.90;;;10.10;;
26106;SDS011;13866;50.748;12.630;2023-08-17T10:14:39;8.93;;;8.50;;
26106;SDS011;13866;50.748;12.630;2023-08-17T10:17:15;9.20;;;8.80;;
26106;SDS011;13866;50.748;12.630;2023-08-17T10:19:51;10.43;;;9.63;;
26106;SDS011;13866;50.748;12.630;2023-08-17T10:22:25;9.67;;;9.03;;
26106;SDS011;13866;50.748;12.630;2023-08-17T10:24:58;9.10;;;8.37;;
26106;SDS011;13866;50.748;12.630;2023-08-17T10:27:25;9.00;;;8.20;;
26106;SDS011;13866;50.748;12.630;2023-08-17T10:29:52;8.60;;;8.20;;
26106;SDS011;13866;50.748;12.630;2023-08-17T10:32:18;10.77;;;9.77;;
26106;SDS011;13866;50.748;12.630;2023-08-17T10:34:46;8.43;;;8.17;;
26106;SDS011;13866;50.748;12.630;2023-08-17T10:37:12;9.63;;;9.00;;
26106;SDS011;13866;50.748;12.630;2023-08-17T10:39:44;10.07;;;9.47;;
26106;SDS011;13866;50.748;12.630;2023-08-17T10:42:11;10.57;;;8.60;;
26106;SDS011;13866;50.748;12.630;2023-08-17T10:44:38;9.90;;;9.07;;
26106;SDS011;13866;50.748;12.630;2023-08-17T10:47:22;9.97;;;9.37;;
26106;SDS011;13866;50.748;12.630;2023-08-17T10:52:30;9.57;;;9.17;;
26106;SDS011;13866;50.748;12.630;2023-08-17T10:55:04;8.20;;;7.70;;
26106;SDS011;13866;50.748;12.630;2023-08-17T10:57:32;9.13;;;8.80;;
26106;SDS011;13866;50.748;12.630;2023-08-17T11:00:18;9.13;;;8.50;;
26106;SDS011;13866;50.748;12.630;2023-08-17T11:06:13;9.03;;;8.60;;
26106;SDS011;13866;50.748;12.630;2023-08-17T11:08:18;8.53;;;8.13;;
26106;SDS011;13866;50.748;12.630;2023-08-17T11:10:48;10.80;;;8.47;;
26106;SDS011;13866;50.748;12.630;2023-08-17T11:13:23;9.67;;;8.80;;
26106;SDS011;13866;50.748;12.630;2023-08-17T11:15:49;9.43;;;8.83;;
26106;SDS011;13866;50.748;12.630;2023-08-17T11:18:14;9.13;;;8.13;;
26106;SDS011;13866;50.748;12.630;2023-08-17T11:20:40;9.10;;;8.50;;
26106;SDS011;13866;50.748;12.630;2023-08-17T11:23:09;9.57;;;8.90;;
26106;SDS011;13866;50.748;12.630;2023-08-17T11:25:36;8.97;;;8.57;;
26106;SDS011;13866;50.748;12.630;2023-08-17T11:28:02;8.63;;;8.33;;
26106;SDS011;13866;50.748;12.630;2023-08-17T11:30:30;7.93;;;7.63;;
26106;SDS011;13866;50.748;12.630;2023-08-17T11:32:58;8.90;;;8.50;;
26106;SDS011;13866;50.748;12.630;2023-08-17T11:35:24;8.90;;;8.40;;
26106;SDS011;13866;50.748;12.630;2023-08-17T11:37:50;8.73;;;8.10;;
26106;SDS011;13866;50.748;12.630;2023-08-17T11:40:15;9.30;;;8.93;;
26106;SDS011;13866;50.748;12.630;2023-08-17T11:42:41;8.60;;;7.97;;
26106;SDS011;13866;50.748;12.630;2023-08-17T11:45:08;9.70;;;9.07;;
26106;SDS011;13866;50.748;12.630;2023-08-17T11:47:34;8.40;;;8.10;;
26106;SDS011;13866;50.748;12.630;2023-08-17T11:50:04;8.87;;;8.20;;
26106;SDS011;13866;50.748;12.630;2023-08-17T11:52:31;9.50;;;8.60;;
26106;SDS011;13866;50.748;12.630;2023-08-17T11:54:58;8.90;;;8.60;;
26106;SDS011;13866;50.748;12.630;2023-08-17T11:57:24;9.10;;;8.90;;
26106;SDS011;13866;50.748;12.630;2023-08-17T11:59:54;8.43;;;8.00;;
26106;SDS011;13866;50.748;12.630;2023-08-17T12:02:23;9.57;;;8.63;;
26106;SDS011;13866;50.748;12.630;2023-08-17T12:04:50;8.83;;;8.07;;
26106;SDS011;13866;50.748;12.630;2023-08-17T12:07:17;7.33;;;7.03;;
26106;SDS011;13866;50.748;12.630;2023-08-17T12:09:44;8.53;;;8.03;;
26106;SDS011;13866;50.748;12.630;2023-08-17T12:12:13;9.20;;;8.73;;
26106;SDS011;13866;50.748;12.630;2023-08-17T12:14:42;8.83;;;8.40;;
26106;SDS011;13866;50.748;12.630;2023-08-17T12:17:13;8.50;;;8.00;;
26106;SDS011;13866;50.748;12.630;2023-08-17T12:19:41;8.57;;;8.30;;
26106;SDS011;13866;50.748;12.630;2023-08-17T12:22:07;10.33;;;9.60;;
26106;SDS011;13866;50.748;12.630;2023-08-17T12:24:33;8.50;;;8.00;;
26106;SDS011;13866;50.748;12.630;2023-08-17T12:27:01;9.87;;;9.07;;
26106;SDS011;13866;50.748;12.630;2023-08-17T12:29:27;8.50;;;8.30;;
26106;SDS011;13866;50.748;12.630;2023-08-17T12:31:53;8.50;;;8.27;;
26106;SDS011;13866;50.748;12.630;2023-08-17T12:34:18;9.87;;;9.47;;
26106;SDS011;13866;50.748;12.630;2023-08-17T12:36:44;11.83;;;8.80;;
26106;SDS011;13866;50.748;12.630;2023-08-17T12:39:10;8.93;;;8.63;;
26106;SDS011;13866;50.748;12.630;2023-08-17T12:41:35;10.67;;;10.27;;
26106;SDS011;13866;50.748;12.630;2023-08-17T12:44:01;10.20;;;9.27;;
26106;SDS011;13866;50.748;12.630;2023-08-17T12:46:27;9.80;;;9.10;;
26106;SDS011;13866;50.748;12.630;2023-08-17T12:48:53;9.10;;;8.80;;
26106;SDS011;13866;50.748;12.630;2023-08-17T12:51:18;9.63;;;9.17;;
26106;SDS011;13866;50.748;12.630;2023-08-17T12:53:44;9.53;;;8.90;;
26106;SDS011;13866;50.748;12.630;2023-08-17T12:56:09;8.93;;;8.43;;
26106;SDS011;13866;50.748;12.630;2023-08-17T12:58:35;10.33;;;9.90;;
26106;SDS011;13866;50.748;12.630;2023-08-17T13:01:01;10.43;;;9.90;;
26106;SDS011;13866;50.748;12.630;2023-08-17T13:03:27;10.17;;;9.47;;
26106;SDS011;13866;50.748;12.630;2023-08-17T13:05:53;11.33;;;10.63;;
26106;SDS011;13866;50.748;12.630;2023-08-17T13:08:19;10.73;;;9.40;;
26106;SDS011;13866;50.748;12.630;2023-08-17T13:10:44;9.63;;;9.13;;
26106;SDS011;13866;50.748;12.630;2023-08-17T13:13:10;10.97;;;10.17;;
26106;SDS011;13866;50.748;12.630;2023-08-17T13:15:35;9.30;;;8.80;;
26106;SDS011;13866;50.748;12.630;2023-08-17T13:18:01;9.23;;;8.83;;
26106;SDS011;13866;50.748;12.630;2023-08-17T13:20:27;11.13;;;10.20;;
26106;SDS011;13866;50.748;12.630;2023-08-17T13:22:53;11.13;;;8.87;;
26106;SDS011;13866;50.748;12.630;2023-08-17T13:25:18;8.93;;;8.33;;
26106;SDS011;13866;50.748;12.630;2023-08-17T13:27:44;11.73;;;7.80;;
26106;SDS011;13866;50.748;12.630;2023-08-17T13:30:10;8.67;;;8.17;;
26106;SDS011;13866;50.748;12.630;2023-08-17T13:32:35;9.17;;;8.67;;
26106;SDS011;13866;50.748;12.630;2023-08-17T13:35:02;9.10;;;8.50;;
26106;SDS011;13866;50.748;12.630;2023-08-17T13:37:28;9.13;;;8.23;;
26106;SDS011;13866;50.748;12.630;2023-08-17T13:39:53;8.77;;;8.37;;
26106;SDS011;13866;50.748;12.630;2023-08-17T13:42:19;8.30;;;7.87;;
26106;SDS011;13866;50.748;12.630;2023-08-17T13:44:45;6.60;;;6.30;;
26106;SDS011;13866;50.748;12.630;2023-08-17T13:47:11;3.80;;;3.60;;
26106;SDS011;13866;50.748;12.630;2023-08-17T13:49:37;4.67;;;3.37;;
26106;SDS011;13866;50.748;12.630;2023-08-17T13:52:02;3.40;;;3.27;;
26106;SDS011;13866;50.748;12.630;2023-08-17T13:54:28;3.10;;;3.10;;
26106;SDS011;13866;50.748;12.630;2023-08-17T13:56:54;3.40;;;3.10;;
26106;SDS011;13866;50.748;12.630;2023-08-17T13:59:19;3.50;;;3.40;;
26106;SDS011;13866;50.748;12.630;2023-08-17T14:01:45;4.47;;;4.37;;
26106;SDS011;13866;50.748;12.630;2023-08-17T14:04:10;5.00;;;4.90;;
26106;SDS011;13866;50.748;12.630;2023-08-17T14:06:39;5.83;;;5.70;;
26106;SDS011;13866;50.748;12.630;2023-08-17T14:09:05;5.03;;;4.93;;
26106;SDS011;13866;50.748;12.630;2023-08-17T14:11:31;7.97;;;7.60;;
26106;SDS011;13866;50.748;12.630;2023-08-17T14:13:56;8.00;;;7.50;;
26106;SDS011;13866;50.748;12.630;2023-08-17T14:16:22;6.13;;;5.83;;
26106;SDS011;13866;50.748;12.630;2023-08-17T14:18:47;4.97;;;4.67;;
26106;SDS011;13866;50.748;12.630;2023-08-17T14:21:13;5.20;;;5.10;;
26106;SDS011;13866;50.748;12.630;2023-08-17T14:23:38;5.40;;;4.67;;
26106;SDS011;13866;50.748;12.630;2023-08-17T14:26:04;5.50;;;5.20;;
26106;SDS011;13866;50.748;12.630;2023-08-17T14:28:30;4.93;;;4.73;;